Terminal Aerodrome Forecast
Issued by NWS Blacksburg, VA

Current Version | Previous Version | Text Only | Print | Product List | Glossary On
Versions: 1 2 3 4 5 6 7 8 9 10 11 12 13 14 15 16 17 18 19 20 21 22 23 24 25 26 27 28 29 30 31 32 33 34 35 36 37 38 39 40 41 42 43 44 45 46 47
000
FTUS41 KRNK 300520
TAFBLF
TAF
KBLF 300520Z 3006/3106 14008KT P6SM FEW150
     FM300900 13008KT P6SM BKN035
     FM301100 14008KT P6SM BKN020
     FM301700 14012G22KT P6SM BKN035
     FM310000 14011KT P6SM BKN030
     FM310500 15013G21KT 5SM -SHRA OVC015=

USA.gov is the U.S. government's official web portal to all federal, state and local government web resources and services.